sensor_id;sensor_type;location;lat;lon;timestamp;P1;durP1;ratioP1;P2;durP2;ratioP2
13592;SDS011;6867;50.998;4.250;2023-06-19T00:02:27;3.38;;;2.58;;
13592;SDS011;6867;50.998;4.250;2023-06-19T00:04:54;3.25;;;2.60;;
13592;SDS011;6867;50.998;4.250;2023-06-19T00:07:20;5.32;;;2.63;;
13592;SDS011;6867;50.998;4.250;2023-06-19T00:09:47;3.85;;;2.60;;
13592;SDS011;6867;50.998;4.250;2023-06-19T00:12:14;3.38;;;2.88;;
13592;SDS011;6867;50.998;4.250;2023-06-19T00:14:40;3.53;;;2.60;;
13592;SDS011;6867;50.998;4.250;2023-06-19T00:17:07;3.40;;;2.70;;
13592;SDS011;6867;50.998;4.250;2023-06-19T00:19:35;3.83;;;2.80;;
13592;SDS011;6867;50.998;4.250;2023-06-19T00:22:02;3.00;;;2.67;;
13592;SDS011;6867;50.998;4.250;2023-06-19T00:24:29;4.72;;;2.70;;
13592;SDS011;6867;50.998;4.250;2023-06-19T00:26:56;3.75;;;2.50;;
13592;SDS011;6867;50.998;4.250;2023-06-19T00:29:27;4.82;;;3.13;;
13592;SDS011;6867;50.998;4.250;2023-06-19T00:31:54;3.50;;;2.90;;
13592;SDS011;6867;50.998;4.250;2023-06-19T00:34:20;4.75;;;3.05;;
13592;SDS011;6867;50.998;4.250;2023-06-19T00:36:50;3.55;;;2.78;;
13592;SDS011;6867;50.998;4.250;2023-06-19T00:39:21;3.58;;;2.78;;
13592;SDS011;6867;50.998;4.250;2023-06-19T00:41:48;4.65;;;3.30;;
13592;SDS011;6867;50.998;4.250;2023-06-19T00:44:17;3.20;;;2.55;;
13592;SDS011;6867;50.998;4.250;2023-06-19T00:46:43;3.35;;;2.60;;
13592;SDS011;6867;50.998;4.250;2023-06-19T00:49:11;8.80;;;3.38;;
13592;SDS011;6867;50.998;4.250;2023-06-19T00:51:38;5.63;;;3.20;;
13592;SDS011;6867;50.998;4.250;2023-06-19T00:54:06;5.65;;;3.33;;
13592;SDS011;6867;50.998;4.250;2023-06-19T00:56:33;4.55;;;3.30;;
13592;SDS011;6867;50.998;4.250;2023-06-19T00:59:02;5.35;;;3.85;;
13592;SDS011;6867;50.998;4.250;2023-06-19T01:01:32;3.38;;;3.08;;
13592;SDS011;6867;50.998;4.250;2023-06-19T01:03:59;5.95;;;3.47;;
13592;SDS011;6867;50.998;4.250;2023-06-19T01:06:27;4.75;;;3.42;;
13592;SDS011;6867;50.998;4.250;2023-06-19T01:09:04;5.90;;;3.15;;
13592;SDS011;6867;50.998;4.250;2023-06-19T01:11:35;4.72;;;4.07;;
13592;SDS011;6867;50.998;4.250;2023-06-19T01:14:07;6.60;;;3.55;;
13592;SDS011;6867;50.998;4.250;2023-06-19T01:16:38;6.40;;;4.50;;
13592;SDS011;6867;50.998;4.250;2023-06-19T01:19:05;6.47;;;4.10;;
13592;SDS011;6867;50.998;4.250;2023-06-19T01:21:36;7.38;;;4.35;;
13592;SDS011;6867;50.998;4.250;2023-06-19T01:24:05;6.35;;;3.97;;
13592;SDS011;6867;50.998;4.250;2023-06-19T01:26:32;6.57;;;3.10;;
13592;SDS011;6867;50.998;4.250;2023-06-19T01:28:59;5.18;;;4.25;;
13592;SDS011;6867;50.998;4.250;2023-06-19T01:31:31;5.60;;;3.88;;
13592;SDS011;6867;50.998;4.250;2023-06-19T01:34:01;5.28;;;3.70;;
13592;SDS011;6867;50.998;4.250;2023-06-19T01:36:32;7.30;;;3.90;;
13592;SDS011;6867;50.998;4.250;2023-06-19T01:39:00;5.35;;;3.67;;
13592;SDS011;6867;50.998;4.250;2023-06-19T01:41:29;6.80;;;4.32;;
13592;SDS011;6867;50.998;4.250;2023-06-19T01:43:58;5.65;;;3.95;;
13592;SDS011;6867;50.998;4.250;2023-06-19T01:46:25;5.18;;;3.80;;
13592;SDS011;6867;50.998;4.250;2023-06-19T01:48:53;6.05;;;4.35;;
13592;SDS011;6867;50.998;4.250;2023-06-19T01:51:19;5.80;;;4.63;;
13592;SDS011;6867;50.998;4.250;2023-06-19T01:53:46;5.32;;;3.80;;
13592;SDS011;6867;50.998;4.250;2023-06-19T01:56:13;5.50;;;4.43;;
13592;SDS011;6867;50.998;4.250;2023-06-19T01:58:41;6.13;;;4.32;;
13592;SDS011;6867;50.998;4.250;2023-06-19T02:01:08;4.40;;;3.72;;
13592;SDS011;6867;50.998;4.250;2023-06-19T02:03:35;6.97;;;4.40;;
13592;SDS011;6867;50.998;4.250;2023-06-19T02:06:01;6.25;;;4.25;;
13592;SDS011;6867;50.998;4.250;2023-06-19T02:08:28;5.88;;;4.57;;
13592;SDS011;6867;50.998;4.250;2023-06-19T02:10:55;7.22;;;4.38;;
13592;SDS011;6867;50.998;4.250;2023-06-19T02:13:21;6.80;;;4.28;;
13592;SDS011;6867;50.998;4.250;2023-06-19T02:15:49;6.05;;;4.85;;
13592;SDS011;6867;50.998;4.250;2023-06-19T02:18:16;6.95;;;4.80;;
13592;SDS011;6867;50.998;4.250;2023-06-19T02:20:43;5.65;;;4.68;;
13592;SDS011;6867;50.998;4.250;2023-06-19T02:23:09;8.73;;;5.45;;
13592;SDS011;6867;50.998;4.250;2023-06-19T02:25:36;8.15;;;5.10;;
13592;SDS011;6867;50.998;4.250;2023-06-19T02:28:03;8.88;;;5.35;;
13592;SDS011;6867;50.998;4.250;2023-06-19T02:30:29;11.70;;;5.68;;
13592;SDS011;6867;50.998;4.250;2023-06-19T02:32:57;6.90;;;6.13;;
13592;SDS011;6867;50.998;4.250;2023-06-19T02:35:24;6.95;;;5.45;;
13592;SDS011;6867;50.998;4.250;2023-06-19T02:37:51;9.63;;;6.10;;
13592;SDS011;6867;50.998;4.250;2023-06-19T02:40:17;7.22;;;6.20;;
13592;SDS011;6867;50.998;4.250;2023-06-19T02:42:44;12.00;;;6.20;;
13592;SDS011;6867;50.998;4.250;2023-06-19T02:45:11;6.72;;;5.80;;
13592;SDS011;6867;50.998;4.250;2023-06-19T02:47:37;9.45;;;6.10;;
13592;SDS011;6867;50.998;4.250;2023-06-19T02:50:06;8.40;;;5.50;;
13592;SDS011;6867;50.998;4.250;2023-06-19T02:52:33;10.75;;;6.05;;
13592;SDS011;6867;50.998;4.250;2023-06-19T02:55:00;6.63;;;5.93;;
13592;SDS011;6867;50.998;4.250;2023-06-19T02:57:26;6.22;;;5.30;;
13592;SDS011;6867;50.998;4.250;2023-06-19T02:59:53;6.00;;;4.82;;
13592;SDS011;6867;50.998;4.250;2023-06-19T03:02:20;14.80;;;5.93;;
13592;SDS011;6867;50.998;4.250;2023-06-19T03:04:46;8.13;;;5.78;;
13592;SDS011;6867;50.998;4.250;2023-06-19T03:07:15;9.63;;;5.65;;
13592;SDS011;6867;50.998;4.250;2023-06-19T03:09:42;6.75;;;5.80;;
13592;SDS011;6867;50.998;4.250;2023-06-19T03:12:09;8.05;;;6.38;;
13592;SDS011;6867;50.998;4.250;2023-06-19T03:14:36;8.43;;;6.15;;
13592;SDS011;6867;50.998;4.250;2023-06-19T03:17:02;8.93;;;5.68;;
13592;SDS011;6867;50.998;4.250;2023-06-19T03:19:29;8.02;;;5.90;;
13592;SDS011;6867;50.998;4.250;2023-06-19T03:21:56;7.50;;;5.57;;
13592;SDS011;6867;50.998;4.250;2023-06-19T03:24:24;5.82;;;5.15;;
13592;SDS011;6867;50.998;4.250;2023-06-19T03:26:51;7.13;;;5.47;;
13592;SDS011;6867;50.998;4.250;2023-06-19T03:29:17;6.03;;;5.00;;
13592;SDS011;6867;50.998;4.250;2023-06-19T03:31:44;6.82;;;5.45;;
13592;SDS011;6867;50.998;4.250;2023-06-19T03:34:11;8.30;;;5.72;;
13592;SDS011;6867;50.998;4.250;2023-06-19T03:36:38;8.80;;;6.03;;
13592;SDS011;6867;50.998;4.250;2023-06-19T03:39:04;9.18;;;5.57;;
13592;SDS011;6867;50.998;4.250;2023-06-19T03:41:32;9.02;;;6.07;;
13592;SDS011;6867;50.998;4.250;2023-06-19T03:43:59;8.88;;;5.88;;
13592;SDS011;6867;50.998;4.250;2023-06-19T03:46:26;7.45;;;5.47;;
13592;SDS011;6867;50.998;4.250;2023-06-19T03:48:52;7.72;;;5.57;;
13592;SDS011;6867;50.998;4.250;2023-06-19T03:51:19;8.98;;;5.65;;
13592;SDS011;6867;50.998;4.250;2023-06-19T03:53:46;7.28;;;6.07;;
13592;SDS011;6867;50.998;4.250;2023-06-19T03:56:12;8.45;;;5.95;;
13592;SDS011;6867;50.998;4.250;2023-06-19T03:58:40;9.52;;;6.45;;
13592;SDS011;6867;50.998;4.250;2023-06-19T04:01:07;6.25;;;5.40;;
13592;SDS011;6867;50.998;4.250;2023-06-19T04:03:34;8.88;;;6.32;;
13592;SDS011;6867;50.998;4.250;2023-06-19T04:06:00;7.03;;;5.60;;
13592;SDS011;6867;50.998;4.250;2023-06-19T04:08:27;8.05;;;5.80;;
13592;SDS011;6867;50.998;4.250;2023-06-19T04:10:54;5.88;;;5.20;;
13592;SDS011;6867;50.998;4.250;2023-06-19T04:13:20;8.02;;;5.80;;
13592;SDS011;6867;50.998;4.250;2023-06-19T04:15:48;9.23;;;6.50;;
13592;SDS011;6867;50.998;4.250;2023-06-19T04:18:15;9.68;;;5.93;;
13592;SDS011;6867;50.998;4.250;2023-06-19T04:20:42;8.27;;;6.20;;
13592;SDS011;6867;50.998;4.250;2023-06-19T04:23:08;9.40;;;5.70;;
13592;SDS011;6867;50.998;4.250;2023-06-19T04:25:35;8.20;;;6.55;;
13592;SDS011;6867;50.998;4.250;2023-06-19T04:28:02;10.23;;;6.57;;
13592;SDS011;6867;50.998;4.250;2023-06-19T04:30:29;8.55;;;6.72;;
13592;SDS011;6867;50.998;4.250;2023-06-19T04:32:58;8.13;;;6.43;;
13592;SDS011;6867;50.998;4.250;2023-06-19T04:35:25;8.77;;;7.20;;
13592;SDS011;6867;50.998;4.250;2023-06-19T04:37:52;10.68;;;7.63;;
13592;SDS011;6867;50.998;4.250;2023-06-19T04:40:19;9.95;;;7.68;;
13592;SDS011;6867;50.998;4.250;2023-06-19T04:42:46;8.27;;;7.25;;
13592;SDS011;6867;50.998;4.250;2023-06-19T04:45:13;9.38;;;7.55;;
13592;SDS011;6867;50.998;4.250;2023-06-19T04:47:39;12.55;;;7.20;;
13592;SDS011;6867;50.998;4.250;2023-06-19T04:50:08;7.95;;;7.15;;
13592;SDS011;6867;50.998;4.250;2023-06-19T04:52:35;9.38;;;7.18;;
13592;SDS011;6867;50.998;4.250;2023-06-19T04:55:02;8.52;;;7.45;;
13592;SDS011;6867;50.998;4.250;2023-06-19T04:57:30;12.30;;;7.75;;
13592;SDS011;6867;50.998;4.250;2023-06-19T04:59:57;12.65;;;8.02;;
13592;SDS011;6867;50.998;4.250;2023-06-19T05:02:24;11.35;;;8.60;;
13592;SDS011;6867;50.998;4.250;2023-06-19T05:04:50;11.93;;;8.27;;
13592;SDS011;6867;50.998;4.250;2023-06-19T05:07:18;10.48;;;8.23;;
13592;SDS011;6867;50.998;4.250;2023-06-19T05:09:45;11.52;;;10.10;;
13592;SDS011;6867;50.998;4.250;2023-06-19T05:12:12;12.00;;;9.40;;
13592;SDS011;6867;50.998;4.250;2023-06-19T05:14:38;13.40;;;9.43;;
13592;SDS011;6867;50.998;4.250;2023-06-19T05:17:05;11.85;;;9.88;;
13592;SDS011;6867;50.998;4.250;2023-06-19T05:19:34;11.48;;;9.75;;
13592;SDS011;6867;50.998;4.250;2023-06-19T05:22:01;14.25;;;10.35;;
13592;SDS011;6867;50.998;4.250;2023-06-19T05:24:29;14.75;;;9.63;;
13592;SDS011;6867;50.998;4.250;2023-06-19T05:26:55;10.63;;;9.10;;
13592;SDS011;6867;50.998;4.250;2023-06-19T05:29:22;14.35;;;9.77;;
13592;SDS011;6867;50.998;4.250;2023-06-19T05:31:48;13.77;;;9.98;;
13592;SDS011;6867;50.998;4.250;2023-06-19T05:34:15;15.52;;;10.65;;
13592;SDS011;6867;50.998;4.250;2023-06-19T05:36:42;17.58;;;10.70;;
13592;SDS011;6867;50.998;4.250;2023-06-19T05:39:10;13.93;;;10.20;;
13592;SDS011;6867;50.998;4.250;2023-06-19T05:41:38;11.73;;;10.43;;
13592;SDS011;6867;50.998;4.250;2023-06-19T05:44:05;13.88;;;10.57;;
13592;SDS011;6867;50.998;4.250;2023-06-19T05:46:31;13.43;;;10.90;;
13592;SDS011;6867;50.998;4.250;2023-06-19T05:48:58;12.20;;;10.65;;
13592;SDS011;6867;50.998;4.250;2023-06-19T05:51:24;14.73;;;10.95;;
13592;SDS011;6867;50.998;4.250;2023-06-19T05:53:51;13.63;;;11.18;;
13592;SDS011;6867;50.998;4.250;2023-06-19T05:56:18;15.05;;;10.73;;
13592;SDS011;6867;50.998;4.250;2023-06-19T05:58:46;13.68;;;10.35;;
13592;SDS011;6867;50.998;4.250;2023-06-19T06:01:12;14.10;;;10.63;;
13592;SDS011;6867;50.998;4.250;2023-06-19T06:03:39;14.05;;;10.82;;
13592;SDS011;6867;50.998;4.250;2023-06-19T06:06:06;13.88;;;10.95;;
13592;SDS011;6867;50.998;4.250;2023-06-19T06:08:32;12.43;;;10.77;;
13592;SDS011;6867;50.998;4.250;2023-06-19T06:10:59;13.13;;;10.82;;
13592;SDS011;6867;50.998;4.250;2023-06-19T06:13:26;12.63;;;9.23;;
13592;SDS011;6867;50.998;4.250;2023-06-19T06:15:54;15.25;;;10.23;;
13592;SDS011;6867;50.998;4.250;2023-06-19T06:18:21;12.13;;;9.88;;
13592;SDS011;6867;50.998;4.250;2023-06-19T06:20:47;13.15;;;10.95;;
13592;SDS011;6867;50.998;4.250;2023-06-19T06:23:14;15.68;;;11.20;;
13592;SDS011;6867;50.998;4.250;2023-06-19T06:25:40;13.13;;;10.55;;
13592;SDS011;6867;50.998;4.250;2023-06-19T06:28:07;14.30;;;10.25;;
13592;SDS011;6867;50.998;4.250;2023-06-19T06:30:34;13.73;;;10.48;;
13592;SDS011;6867;50.998;4.250;2023-06-19T06:33:02;12.65;;;10.48;;
13592;SDS011;6867;50.998;4.250;2023-06-19T06:35:29;14.45;;;10.23;;
13592;SDS011;6867;50.998;4.250;2023-06-19T06:37:55;11.27;;;9.07;;
13592;SDS011;6867;50.998;4.250;2023-06-19T06:40:22;11.48;;;9.40;;
13592;SDS011;6867;50.998;4.250;2023-06-19T06:42:48;14.73;;;10.35;;
13592;SDS011;6867;50.998;4.250;2023-06-19T06:45:15;12.52;;;9.82;;
13592;SDS011;6867;50.998;4.250;2023-06-19T06:47:42;13.05;;;9.82;;
13592;SDS011;6867;50.998;4.250;2023-06-19T06:50:10;14.00;;;9.68;;
13592;SDS011;6867;50.998;4.250;2023-06-19T06:52:37;13.65;;;10.02;;
13592;SDS011;6867;50.998;4.250;2023-06-19T06:55:04;17.30;;;9.82;;
13592;SDS011;6867;50.998;4.250;2023-06-19T06:57:31;11.05;;;8.65;;
13592;SDS011;6867;50.998;4.250;2023-06-19T06:59:58;12.00;;;8.68;;
13592;SDS011;6867;50.998;4.250;2023-06-19T07:02:24;12.07;;;9.02;;
13592;SDS011;6867;50.998;4.250;2023-06-19T07:04:51;12.00;;;8.98;;
13592;SDS011;6867;50.998;4.250;2023-06-19T07:07:19;12.55;;;8.95;;
13592;SDS011;6867;50.998;4.250;2023-06-19T07:09:46;12.48;;;8.40;;
13592;SDS011;6867;50.998;4.250;2023-06-19T07:12:13;12.98;;;8.07;;
13592;SDS011;6867;50.998;4.250;2023-06-19T07:14:40;9.88;;;8.82;;
13592;SDS011;6867;50.998;4.250;2023-06-19T07:17:07;12.68;;;8.85;;
13592;SDS011;6867;50.998;4.250;2023-06-19T07:19:33;12.63;;;8.82;;
13592;SDS011;6867;50.998;4.250;2023-06-19T07:22:00;12.90;;;9.23;;
13592;SDS011;6867;50.998;4.250;2023-06-19T07:24:29;14.15;;;8.70;;
13592;SDS011;6867;50.998;4.250;2023-06-19T07:26:55;13.40;;;9.68;;
13592;SDS011;6867;50.998;4.250;2023-06-19T07:29:22;10.18;;;8.43;;
13592;SDS011;6867;50.998;4.250;2023-06-19T07:31:50;10.48;;;8.77;;
13592;SDS011;6867;50.998;4.250;2023-06-19T07:34:17;11.65;;;8.98;;
13592;SDS011;6867;50.998;4.250;2023-06-19T07:36:43;12.68;;;8.02;;
13592;SDS011;6867;50.998;4.250;2023-06-19T07:39:10;9.63;;;8.35;;
13592;SDS011;6867;50.998;4.250;2023-06-19T07:41:38;10.98;;;8.23;;
13592;SDS011;6867;50.998;4.250;2023-06-19T07:44:05;11.00;;;7.82;;
13592;SDS011;6867;50.998;4.250;2023-06-19T07:46:32;9.73;;;7.18;;
13592;SDS011;6867;50.998;4.250;2023-06-19T07:48:58;10.18;;;7.22;;
13592;SDS011;6867;50.998;4.250;2023-06-19T07:51:25;11.13;;;7.78;;
13592;SDS011;6867;50.998;4.250;2023-06-19T07:53:52;12.80;;;8.38;;
13592;SDS011;6867;50.998;4.250;2023-06-19T07:56:18;15.50;;;8.45;;
13592;SDS011;6867;50.998;4.250;2023-06-19T07:58:46;8.52;;;7.38;;
13592;SDS011;6867;50.998;4.250;2023-06-19T08:01:13;21.17;;;7.68;;
13592;SDS011;6867;50.998;4.250;2023-06-19T08:03:41;12.63;;;8.38;;
13592;SDS011;6867;50.998;4.250;2023-06-19T08:06:08;11.25;;;7.68;;
13592;SDS011;6867;50.998;4.250;2023-06-19T08:08:34;12.27;;;8.15;;
13592;SDS011;6867;50.998;4.250;2023-06-19T08:11:01;11.70;;;8.65;;
13592;SDS011;6867;50.998;4.250;2023-06-19T08:13:28;13.40;;;8.80;;
13592;SDS011;6867;50.998;4.250;2023-06-19T08:15:56;14.60;;;8.02;;
13592;SDS011;6867;50.998;4.250;2023-06-19T08:18:22;13.10;;;7.95;;
13592;SDS011;6867;50.998;4.250;2023-06-19T08:20:49;12.52;;;9.02;;
13592;SDS011;6867;50.998;4.250;2023-06-19T08:23:16;10.27;;;8.70;;
13592;SDS011;6867;50.998;4.250;2023-06-19T08:25:42;12.40;;;8.10;;
13592;SDS011;6867;50.998;4.250;2023-06-19T08:28:09;10.05;;;8.63;;
13592;SDS011;6867;50.998;4.250;2023-06-19T08:30:35;15.32;;;8.38;;
13592;SDS011;6867;50.998;4.250;2023-06-19T08:33:04;8.73;;;7.82;;
13592;SDS011;6867;50.998;4.250;2023-06-19T08:35:30;10.55;;;8.35;;
13592;SDS011;6867;50.998;4.250;2023-06-19T08:37:57;9.20;;;7.53;;
13592;SDS011;6867;50.998;4.250;2023-06-19T08:40:24;11.00;;;8.55;;
13592;SDS011;6867;50.998;4.250;2023-06-19T08:42:50;13.30;;;8.75;;
13592;SDS011;6867;50.998;4.250;2023-06-19T08:45:17;11.20;;;8.23;;
13592;SDS011;6867;50.998;4.250;2023-06-19T08:47:46;10.85;;;8.13;;
13592;SDS011;6867;50.998;4.250;2023-06-19T08:50:14;10.88;;;8.95;;
13592;SDS011;6867;50.998;4.250;2023-06-19T08:52:41;8.65;;;7.75;;
13592;SDS011;6867;50.998;4.250;2023-06-19T08:55:08;9.25;;;7.53;;
13592;SDS011;6867;50.998;4.250;2023-06-19T08:57:35;10.40;;;8.55;;
13592;SDS011;6867;50.998;4.250;2023-06-19T09:00:04;11.10;;;8.55;;
13592;SDS011;6867;50.998;4.250;2023-06-19T09:02:36;9.25;;;7.93;;
13592;SDS011;6867;50.998;4.250;2023-06-19T09:05:11;8.80;;;7.57;;
13592;SDS011;6867;50.998;4.250;2023-06-19T09:07:41;11.43;;;8.75;;
13592;SDS011;6867;50.998;4.250;2023-06-19T09:10:13;10.45;;;9.18;;
13592;SDS011;6867;50.998;4.250;2023-06-19T09:12:41;10.57;;;9.10;;
13592;SDS011;6867;50.998;4.250;2023-06-19T09:15:11;10.50;;;7.97;;
13592;SDS011;6867;50.998;4.250;2023-06-19T09:17:38;9.68;;;7.95;;
13592;SDS011;6867;50.998;4.250;2023-06-19T09:20:06;10.70;;;8.63;;
13592;SDS011;6867;50.998;4.250;2023-06-19T09:22:37;11.05;;;8.48;;
13592;SDS011;6867;50.998;4.250;2023-06-19T09:25:06;11.93;;;10.18;;
13592;SDS011;6867;50.998;4.250;2023-06-19T09:27:35;9.73;;;8.48;;
13592;SDS011;6867;50.998;4.250;2023-06-19T09:30:02;10.52;;;8.07;;
13592;SDS011;6867;50.998;4.250;2023-06-19T09:32:31;10.40;;;8.88;;
13592;SDS011;6867;50.998;4.250;2023-06-19T09:35:01;11.15;;;9.57;;
13592;SDS011;6867;50.998;4.250;2023-06-19T09:37:29;9.38;;;8.48;;
13592;SDS011;6867;50.998;4.250;2023-06-19T09:39:57;11.40;;;9.80;;
13592;SDS011;6867;50.998;4.250;2023-06-19T09:42:28;10.82;;;9.70;;
13592;SDS011;6867;50.998;4.250;2023-06-19T09:44:58;11.20;;;9.07;;
13592;SDS011;6867;50.998;4.250;2023-06-19T09:47:29;11.55;;;8.00;;
13592;SDS011;6867;50.998;4.250;2023-06-19T09:49:57;9.70;;;8.70;;
13592;SDS011;6867;50.998;4.250;2023-06-19T09:52:24;9.70;;;8.70;;
13592;SDS011;6867;50.998;4.250;2023-06-19T09:54:53;10.32;;;8.55;;
13592;SDS011;6867;50.998;4.250;2023-06-19T09:57:21;13.32;;;9.10;;
13592;SDS011;6867;50.998;4.250;2023-06-19T09:59:49;12.30;;;10.07;;
13592;SDS011;6867;50.998;4.250;2023-06-19T10:02:19;12.90;;;10.63;;
13592;SDS011;6867;50.998;4.250;2023-06-19T10:04:48;10.50;;;9.38;;
13592;SDS011;6867;50.998;4.250;2023-06-19T10:07:17;11.73;;;8.02;;
13592;SDS011;6867;50.998;4.250;2023-06-19T10:09:57;9.38;;;8.40;;
13592;SDS011;6867;50.998;4.250;2023-06-19T10:12:34;8.65;;;7.22;;
13592;SDS011;6867;50.998;4.250;2023-06-19T10:15:10;11.35;;;7.88;;
13592;SDS011;6867;50.998;4.250;2023-06-19T10:17:42;9.10;;;7.93;;
13592;SDS011;6867;50.998;4.250;2023-06-19T10:20:18;11.40;;;7.47;;
13592;SDS011;6867;50.998;4.250;2023-06-19T10:22:51;10.30;;;8.20;;
13592;SDS011;6867;50.998;4.250;2023-06-19T10:25:21;9.43;;;7.13;;
13592;SDS011;6867;50.998;4.250;2023-06-19T10:27:48;10.27;;;7.70;;
13592;SDS011;6867;50.998;4.250;2023-06-19T10:30:18;9.70;;;8.20;;
13592;SDS011;6867;50.998;4.250;2023-06-19T10:32:46;9.05;;;7.47;;
13592;SDS011;6867;50.998;4.250;2023-06-19T10:35:13;9.77;;;8.07;;
13592;SDS011;6867;50.998;4.250;2023-06-19T10:37:40;9.38;;;7.10;;
13592;SDS011;6867;50.998;4.250;2023-06-19T10:40:07;11.40;;;6.47;;
13592;SDS011;6867;50.998;4.250;2023-06-19T10:42:35;9.65;;;6.72;;
13592;SDS011;6867;50.998;4.250;2023-06-19T10:45:03;8.88;;;7.18;;
13592;SDS011;6867;50.998;4.250;2023-06-19T10:47:33;10.90;;;7.55;;
13592;SDS011;6867;50.998;4.250;2023-06-19T10:50:00;11.50;;;7.38;;
13592;SDS011;6867;50.998;4.250;2023-06-19T10:52:28;10.20;;;6.65;;
13592;SDS011;6867;50.998;4.250;2023-06-19T10:54:54;10.07;;;7.60;;
13592;SDS011;6867;50.998;4.250;2023-06-19T10:57:26;9.70;;;7.00;;
13592;SDS011;6867;50.998;4.250;2023-06-19T10:59:53;7.95;;;6.88;;
13592;SDS011;6867;50.998;4.250;2023-06-19T11:02:20;11.85;;;7.63;;
13592;SDS011;6867;50.998;4.250;2023-06-19T11:04:49;8.38;;;6.50;;
13592;SDS011;6867;50.998;4.250;2023-06-19T11:07:18;7.35;;;6.25;;
13592;SDS011;6867;50.998;4.250;2023-06-19T11:09:45;9.23;;;6.35;;
13592;SDS011;6867;50.998;4.250;2023-06-19T11:12:12;6.95;;;5.82;;
13592;SDS011;6867;50.998;4.250;2023-06-19T11:14:45;9.00;;;7.32;;
13592;SDS011;6867;50.998;4.250;2023-06-19T11:17:12;7.70;;;6.35;;
13592;SDS011;6867;50.998;4.250;2023-06-19T11:19:39;10.80;;;6.88;;
13592;SDS011;6867;50.998;4.250;2023-06-19T11:22:08;9.27;;;6.13;;
13592;SDS011;6867;50.998;4.250;2023-06-19T11:24:36;11.85;;;6.68;;
13592;SDS011;6867;50.998;4.250;2023-06-19T11:27:03;11.45;;;7.35;;
13592;SDS011;6867;50.998;4.250;2023-06-19T11:29:30;7.18;;;5.95;;
13592;SDS011;6867;50.998;4.250;2023-06-19T11:32:04;10.30;;;6.88;;
13592;SDS011;6867;50.998;4.250;2023-06-19T11:34:32;6.65;;;5.50;;
13592;SDS011;6867;50.998;4.250;2023-06-19T11:37:01;9.75;;;6.53;;
13592;SDS011;6867;50.998;4.250;2023-06-19T11:39:31;9.02;;;5.80;;
13592;SDS011;6867;50.998;4.250;2023-06-19T11:41:58;10.43;;;6.22;;
13592;SDS011;6867;50.998;4.250;2023-06-19T11:44:25;8.15;;;6.35;;
13592;SDS011;6867;50.998;4.250;2023-06-19T11:46:56;10.82;;;5.95;;
13592;SDS011;6867;50.998;4.250;2023-06-19T11:49:23;8.15;;;5.53;;
13592;SDS011;6867;50.998;4.250;2023-06-19T11:51:50;8.45;;;6.28;;
13592;SDS011;6867;50.998;4.250;2023-06-19T11:54:17;6.25;;;5.63;;
13592;SDS011;6867;50.998;4.250;2023-06-19T11:56:45;8.30;;;5.72;;
13592;SDS011;6867;50.998;4.250;2023-06-19T11:59:12;10.15;;;6.07;;
13592;SDS011;6867;50.998;4.250;2023-06-19T12:01:39;8.85;;;5.40;;
13592;SDS011;6867;50.998;4.250;2023-06-19T12:04:06;8.82;;;6.45;;
13592;SDS011;6867;50.998;4.250;2023-06-19T12:06:33;8.40;;;5.82;;
13592;SDS011;6867;50.998;4.250;2023-06-19T12:09:00;7.45;;;6.00;;
13592;SDS011;6867;50.998;4.250;2023-06-19T12:11:28;8.88;;;5.78;;
13592;SDS011;6867;50.998;4.250;2023-06-19T12:13:56;7.35;;;5.80;;
13592;SDS011;6867;50.998;4.250;2023-06-19T12:16:23;8.45;;;6.00;;
13592;SDS011;6867;50.998;4.250;2023-06-19T12:18:50;9.10;;;5.68;;
13592;SDS011;6867;50.998;4.250;2023-06-19T12:21:17;7.22;;;5.55;;
13592;SDS011;6867;50.998;4.250;2023-06-19T12:23:43;6.72;;;5.90;;
13592;SDS011;6867;50.998;4.250;2023-06-19T12:26:10;7.00;;;5.40;;
13592;SDS011;6867;50.998;4.250;2023-06-19T12:28:37;6.05;;;5.20;;
13592;SDS011;6867;50.998;4.250;2023-06-19T12:31:05;5.85;;;5.25;;
13592;SDS011;6867;50.998;4.250;2023-06-19T12:33:31;5.07;;;4.57;;
13592;SDS011;6867;50.998;4.250;2023-06-19T12:35:59;7.00;;;5.60;;
13592;SDS011;6867;50.998;4.250;2023-06-19T12:38:26;8.52;;;5.20;;
13592;SDS011;6867;50.998;4.250;2023-06-19T12:40:53;6.60;;;5.50;;
13592;SDS011;6867;50.998;4.250;2023-06-19T12:43:19;9.38;;;5.95;;
13592;SDS011;6867;50.998;4.250;2023-06-19T12:45:46;8.48;;;6.03;;
13592;SDS011;6867;50.998;4.250;2023-06-19T12:48:14;6.18;;;5.57;;
13592;SDS011;6867;50.998;4.250;2023-06-19T12:50:42;7.40;;;5.30;;
13592;SDS011;6867;50.998;4.250;2023-06-19T12:53:08;11.98;;;5.32;;
13592;SDS011;6867;50.998;4.250;2023-06-19T12:55:36;10.55;;;5.53;;
13592;SDS011;6867;50.998;4.250;2023-06-19T12:58:03;5.88;;;4.93;;
13592;SDS011;6867;50.998;4.250;2023-06-19T13:00:30;7.38;;;5.65;;
13592;SDS011;6867;50.998;4.250;2023-06-19T13:02:56;6.93;;;5.18;;
13592;SDS011;6867;50.998;4.250;2023-06-19T13:05:24;7.35;;;5.78;;
13592;SDS011;6867;50.998;4.250;2023-06-19T13:07:51;6.70;;;5.20;;
13592;SDS011;6867;50.998;4.250;2023-06-19T13:10:18;7.32;;;5.85;;
13592;SDS011;6867;50.998;4.250;2023-06-19T13:12:44;6.88;;;5.13;;
13592;SDS011;6867;50.998;4.250;2023-06-19T13:15:11;9.50;;;5.88;;
13592;SDS011;6867;50.998;4.250;2023-06-19T13:17:38;7.20;;;5.38;;
13592;SDS011;6867;50.998;4.250;2023-06-19T13:20:05;7.53;;;5.10;;
13592;SDS011;6867;50.998;4.250;2023-06-19T13:22:34;7.10;;;5.70;;
13592;SDS011;6867;50.998;4.250;2023-06-19T13:25:01;6.45;;;5.25;;
13592;SDS011;6867;50.998;4.250;2023-06-19T13:27:28;7.00;;;5.78;;
13592;SDS011;6867;50.998;4.250;2023-06-19T13:29:55;8.55;;;5.38;;
13592;SDS011;6867;50.998;4.250;2023-06-19T13:32:21;7.95;;;5.95;;
13592;SDS011;6867;50.998;4.250;2023-06-19T13:34:48;7.32;;;5.20;;
13592;SDS011;6867;50.998;4.250;2023-06-19T13:37:14;6.75;;;5.53;;
13592;SDS011;6867;50.998;4.250;2023-06-19T13:39:42;5.78;;;5.22;;
13592;SDS011;6867;50.998;4.250;2023-06-19T13:42:09;7.53;;;5.30;;
13592;SDS011;6867;50.998;4.250;2023-06-19T13:44:36;7.82;;;5.40;;
13592;SDS011;6867;50.998;4.250;2023-06-19T13:47:04;7.38;;;5.43;;
13592;SDS011;6867;50.998;4.250;2023-06-19T13:49:31;10.43;;;4.60;;
13592;SDS011;6867;50.998;4.250;2023-06-19T13:51:58;5.00;;;4.50;;
13592;SDS011;6867;50.998;4.250;2023-06-19T13:54:24;8.63;;;5.40;;
13592;SDS011;6867;50.998;4.250;2023-06-19T13:56:52;9.48;;;5.13;;
13592;SDS011;6867;50.998;4.250;2023-06-19T13:59:19;7.75;;;5.43;;
13592;SDS011;6867;50.998;4.250;2023-06-19T14:01:46;7.43;;;5.80;;
13592;SDS011;6867;50.998;4.250;2023-06-19T14:04:13;9.63;;;6.10;;
13592;SDS011;6867;50.998;4.250;2023-06-19T14:06:39;11.15;;;5.70;;
13592;SDS011;6867;50.998;4.250;2023-06-19T14:09:07;5.90;;;5.30;;
13592;SDS011;6867;50.998;4.250;2023-06-19T14:11:34;6.35;;;5.43;;
13592;SDS011;6867;50.998;4.250;2023-06-19T14:14:02;8.23;;;5.13;;
13592;SDS011;6867;50.998;4.250;2023-06-19T14:16:29;8.20;;;4.82;;
13592;SDS011;6867;50.998;4.250;2023-06-19T14:18:55;7.45;;;5.20;;
13592;SDS011;6867;50.998;4.250;2023-06-19T14:21:22;6.35;;;4.97;;
13592;SDS011;6867;50.998;4.250;2023-06-19T14:23:49;8.48;;;5.43;;
13592;SDS011;6867;50.998;4.250;2023-06-19T14:26:16;8.07;;;5.40;;
13592;SDS011;6867;50.998;4.250;2023-06-19T14:28:42;7.38;;;5.40;;
13592;SDS011;6867;50.998;4.250;2023-06-19T14:31:10;8.48;;;4.70;;
13592;SDS011;6867;50.998;4.250;2023-06-19T14:33:37;5.47;;;4.65;;
13592;SDS011;6867;50.998;4.250;2023-06-19T14:36:04;6.75;;;5.07;;
13592;SDS011;6867;50.998;4.250;2023-06-19T14:38:31;6.50;;;4.60;;
13592;SDS011;6867;50.998;4.250;2023-06-19T14:40:59;5.97;;;4.45;;
13592;SDS011;6867;50.998;4.250;2023-06-19T14:43:25;8.10;;;5.30;;
13592;SDS011;6867;50.998;4.250;2023-06-19T14:45:52;5.97;;;4.78;;
13592;SDS011;6867;50.998;4.250;2023-06-19T14:48:20;6.65;;;4.88;;
13592;SDS011;6867;50.998;4.250;2023-06-19T14:50:47;6.80;;;4.85;;
13592;SDS011;6867;50.998;4.250;2023-06-19T14:53:14;4.97;;;4.32;;
13592;SDS011;6867;50.998;4.250;2023-06-19T14:55:40;5.53;;;4.15;;
13592;SDS011;6867;50.998;4.250;2023-06-19T14:58:10;4.60;;;4.07;;